Time;durP1;ratioP1;P1;durP2;ratioP2;P2;SDS_P1;SDS_P2;PMS_P1;PMS_P2;Temp;Humidity;BMP_temperature;BMP_pressure;BME280_temperature;BME280_humidity;BME280_pressure;Samples;Min_cycle;Max_cycle;Signal;HPM_P1;HPM_P2
2022/05/05 00:01:07;;;;;;;5.03;2.63;;;;;;;4.72;54.45;99998.78;4973508;28;20440;-85
2022/05/05 00:03:34;;;;;;;3.35;2.08;;;;;;;4.88;54.64;100043.88;4973318;28;20571;-84
2022/05/05 00:06:00;;;;;;;7.10;2.40;;;;;;;4.67;55.45;100023.94;4973332;28;20058;-84
2022/05/05 00:08:26;;;;;;;4.30;2.53;;;;;;;4.89;54.61;100039.28;4956797;28;20038;-84
2022/05/05 00:16:20;;;;;;;3.00;1.70;;;;;;;4.52;55.05;100031.88;4973918;28;20047;-85
2022/05/05 00:18:46;;;;;;;4.28;1.88;;;;;;;4.77;54.34;100052.16;4973380;28;20412;-85
2022/05/05 00:21:16;;;;;;;6.05;2.28;;;;;;;4.77;54.58;100054.88;4940620;28;20512;-84
2022/05/05 00:23:42;;;;;;;8.32;2.28;;;;;;;4.76;54.51;100061.38;4940349;28;20067;-85
2022/05/05 00:26:08;;;;;;;9.30;2.28;;;;;;;4.87;54.13;100071.25;4939886;28;20049;-85
2022/05/05 00:28:43;;;;;;;3.28;2.00;;;;;;;4.72;54.07;100059.16;4942332;28;20467;-85
2022/05/05 00:31:18;;;;;;;4.93;2.17;;;;;;;4.68;54.72;100081.63;4939799;28;20085;-85
2022/05/05 00:33:45;;;;;;;5.80;2.10;;;;;;;4.72;54.43;100077.31;4972057;28;20057;-85
2022/05/05 00:36:11;;;;;;;2.80;1.70;;;;;;;4.75;54.28;100079.50;4972859;28;20516;-85
2022/05/05 00:38:38;;;;;;;4.82;2.45;;;;;;;4.66;54.48;100073.72;4971745;28;20290;-85
2022/05/05 00:41:11;;;;;;;6.00;2.03;;;;;;;4.42;55.55;100056.97;4955659;28;20047;-89
2022/05/05 00:43:37;;;;;;;4.68;2.40;;;;;;;4.57;55.54;100085.25;4939870;28;20560;-86
2022/05/05 00:46:03;;;;;;;4.78;2.60;;;;;;;4.43;55.50;100055.88;4955964;28;20508;-84
2022/05/05 00:48:29;;;;;;;4.15;2.30;;;;;;;4.57;55.39;100074.44;4959500;28;20038;-85
2022/05/05 00:50:57;;;;;;;13.25;2.60;;;;;;;4.60;55.35;100090.19;4961251;28;20597;-85
2022/05/05 00:53:24;;;;;;;5.40;2.60;;;;;;;4.63;55.20;100093.19;4961599;28;20058;-85
2022/05/05 00:56:03;;;;;;;4.95;2.40;;;;;;;4.60;55.34;100098.31;4977759;28;20039;-85
2022/05/05 00:58:30;;;;;;;3.80;2.20;;;;;;;4.54;55.29;100100.16;4976520;28;20043;-85
2022/05/05 01:00:58;;;;;;;7.50;2.07;;;;;;;4.39;55.65;100094.56;4977376;28;20124;-85
2022/05/05 01:03:24;;;;;;;6.20;2.38;;;;;;;4.31;55.99;100076.06;4978120;28;20365;-85
2022/05/05 01:05:50;;;;;;;5.88;3.10;;;;;;;4.45;56.25;100116.03;4977629;28;20206;-85
2022/05/05 01:08:16;;;;;;;4.57;2.40;;;;;;;4.19;56.44;100090.53;4975744;28;20046;-85
2022/05/05 01:10:42;;;;;;;3.88;2.15;;;;;;;4.33;56.34;100119.91;4984539;28;20054;-83
2022/05/05 01:13:08;;;;;;;5.05;2.30;;;;;;;4.26;56.69;100108.47;4984496;28;20050;-85
2022/05/05 01:15:36;;;;;;;6.93;2.35;;;;;;;4.31;56.69;100112.06;4981808;28;20101;-86
2022/05/05 01:18:02;;;;;;;6.63;2.03;;;;;;;4.15;56.69;100085.88;4978489;28;20030;-87
2022/05/05 01:20:29;;;;;;;3.97;2.00;;;;;;;4.42;56.91;100124.63;4942462;28;20039;-85
2022/05/05 01:22:54;;;;;;;4.53;2.40;;;;;;;4.36;56.59;100122.13;4959518;28;20050;-82
2022/05/05 01:28:14;;;;;;;4.78;2.45;;;;;;;4.23;57.04;100131.44;4945333;28;20101;-83
2022/05/05 01:30:43;;;;;;;5.07;2.28;;;;;;;4.24;56.96;100124.97;4978396;28;20043;-85
2022/05/05 01:33:14;;;;;;;8.95;2.42;;;;;;;4.13;56.84;100115.88;4931505;28;20042;-83
2022/05/05 01:35:43;;;;;;;4.13;2.28;;;;;;;4.30;56.77;100139.38;4980656;28;20062;-84
2022/05/05 01:38:20;;;;;;;6.78;2.60;;;;;;;4.28;56.42;100142.34;4978973;28;20452;-83
2022/05/05 01:40:49;;;;;;;10.25;2.40;;;;;;;4.34;56.86;100154.03;4978550;28;20052;-85
2022/05/05 01:43:18;;;;;;;7.53;2.25;;;;;;;4.29;56.36;100146.69;4977605;28;20042;-83
2022/05/05 01:45:46;;;;;;;4.10;2.55;;;;;;;4.34;56.59;100157.59;4977309;28;20500;-84
2022/05/05 01:48:13;;;;;;;5.93;2.53;;;;;;;4.27;56.60;100159.63;4961348;28;20043;-84
2022/05/05 01:50:39;;;;;;;;;;;;;;;4.31;56.10;100158.09;4977423;28;20062;-83
2022/05/05 01:53:07;;;;;;;5.00;2.70;;;;;;;4.09;56.13;100135.59;4961182;28;19922;-84
2022/05/05 01:55:36;;;;;;;13.52;2.42;;;;;;;4.21;56.41;100166.06;4976729;28;20049;-83
2022/05/05 01:58:03;;;;;;;5.65;2.70;;;;;;;3.94;56.34;100111.84;4942549;28;20054;-85
2022/05/05 02:00:31;;;;;;;9.10;3.05;;;;;;;4.19;56.23;100174.41;4975093;28;20416;-85
2022/05/05 02:02:57;;;;;;;4.80;2.65;;;;;;;4.10;56.13;100142.63;4975254;28;20635;-83
2022/05/05 02:05:23;;;;;;;7.50;2.60;;;;;;;4.16;55.80;100160.56;4974002;28;20074;-85
2022/05/05 02:07:49;;;;;;;6.57;3.08;;;;;;;4.14;56.29;100158.13;4976131;28;20081;-84
2022/05/05 02:10:17;;;;;;;6.93;3.17;;;;;;;4.32;55.82;100185.97;4975025;28;20133;-85
2022/05/05 02:12:45;;;;;;;8.38;2.58;;;;;;;4.29;55.92;100186.47;4958075;28;20041;-84
2022/05/05 02:15:12;;;;;;;6.45;3.00;;;;;;;4.21;55.98;100164.19;4956696;28;20105;-84
2022/05/05 02:18:11;;;;;;;5.82;2.75;;;;;;;4.21;55.89;100196.66;4961151;28;20039;-85
2022/05/05 02:20:38;;;;;;;4.32;2.72;;;;;;;4.23;55.78;100180.16;4957960;28;20073;-83
2022/05/05 02:23:06;;;;;;;7.88;2.63;;;;;;;4.21;55.78;100187.72;4976387;28;20098;-85
2022/05/05 02:25:33;;;;;;;14.90;3.03;;;;;;;4.33;55.46;100204.66;4975680;28;20131;-85
2022/05/05 02:28:24;;;;;;;6.43;2.50;;;;;;;4.27;55.39;100194.81;4977091;28;20061;-84
2022/05/05 02:30:50;;;;;;;7.13;3.22;;;;;;;4.38;55.51;100199.31;4975845;28;20039;-84
2022/05/05 02:33:16;;;;;;;6.90;2.92;;;;;;;4.22;55.54;100187.47;4957613;28;20089;-84
2022/05/05 02:38:42;;;;;;;8.30;2.85;;;;;;;4.35;55.40;100212.53;4958077;28;20042;-85
2022/05/05 02:38:44;;;;;;;5.47;2.92;;;;;;;4.24;55.11;100195.34;4974669;28;20034;-84
2022/05/05 02:41:11;;;;;;;5.32;2.75;;;;;;;4.37;55.22;100224.75;4975145;28;20093;-85
2022/05/05 02:43:37;;;;;;;9.35;3.05;;;;;;;4.17;55.33;100184.69;4975068;28;20158;-85
2022/05/05 02:46:06;;;;;;;5.45;2.70;;;;;;;4.39;55.15;100216.38;4957698;28;20098;-84
2022/05/05 02:48:32;;;;;;;6.03;2.92;;;;;;;4.39;54.47;100216.38;4974341;28;20580;-85
2022/05/05 02:51:20;;;;;;;6.25;2.92;;;;;;;4.27;54.66;100199.41;4954126;28;20087;-81
2022/05/05 02:56:31;;;;;;;6.20;2.55;;;;;;;4.49;54.53;100235.47;4915022;29;20112;-84
2022/05/05 02:58:57;;;;;;;6.20;2.38;;;;;;;4.51;54.48;100232.53;4898890;29;20084;-81
2022/05/05 03:01:24;;;;;;;5.57;2.85;;;;;;;4.61;54.11;100247.00;4914471;29;20055;-83
2022/05/05 03:03:50;;;;;;;4.10;2.67;;;;;;;4.60;54.26;100233.69;4914737;29;20509;-83
2022/05/05 03:06:16;;;;;;;4.50;2.50;;;;;;;4.64;54.01;100234.88;4898559;29;20048;-82
2022/05/05 03:08:42;;;;;;;6.50;2.80;;;;;;;4.71;54.00;100255.25;4915545;29;20059;-82
2022/05/05 03:11:10;;;;;;;10.25;2.70;;;;;;;4.65;53.79;100239.19;4917109;29;20044;-82
2022/05/05 03:13:37;;;;;;;6.38;2.70;;;;;;;4.52;54.03;100213.31;4900900;29;20403;-82
2022/05/05 03:16:04;;;;;;;6.13;2.95;;;;;;;4.76;53.74;100257.19;4916245;29;20135;-84
2022/05/05 03:18:31;;;;;;;5.88;2.80;;;;;;;4.56;53.64;100211.72;4884261;29;20052;-82
2022/05/05 03:20:57;;;;;;;7.18;2.75;;;;;;;4.89;53.35;100242.47;4914532;29;20051;-82
2022/05/05 03:23:23;;;;;;;5.07;2.90;;;;;;;5.04;53.20;100266.25;4913956;29;20083;-82
2022/05/05 03:25:49;;;;;;;9.50;2.63;;;;;;;5.09;52.80;100256.25;4868024;29;20072;-81
2022/05/05 03:28:16;;;;;;;5.55;2.10;;;;;;;4.94;52.58;100266.94;4914606;29;20482;-82
2022/05/05 03:30:42;;;;;;;6.32;2.95;;;;;;;5.03;52.92;100275.41;4889408;29;20055;-82
2022/05/05 03:33:08;;;;;;;4.50;2.70;;;;;;;5.15;52.89;100276.94;4921680;29;20453;-82
2022/05/05 03:35:34;;;;;;;5.05;2.60;;;;;;;5.08;52.51;100262.75;4968909;28;20083;-82
2022/05/05 03:38:00;;;;;;;10.05;3.22;;;;;;;5.21;52.17;100263.44;4952837;29;20043;-80
2022/05/05 03:40:26;;;;;;;6.70;3.10;;;;;;;5.21;52.15;100283.22;4954117;28;20051;-81
2022/05/05 03:42:52;;;;;;;3.35;2.40;;;;;;;5.19;52.41;100291.59;4954473;29;20290;-81
2022/05/05 03:45:18;;;;;;;9.23;2.90;;;;;;;5.14;51.82;100260.94;4922703;29;20086;-82
2022/05/05 03:47:50;;;;;;;5.68;2.67;;;;;;;5.22;52.42;100287.56;4937351;29;20137;-81
2022/05/05 03:50:16;;;;;;;6.43;3.17;;;;;;;5.27;52.46;100273.28;4956802;28;20134;-82
2022/05/05 03:52:43;;;;;;;7.97;2.77;;;;;;;5.32;51.34;100286.88;4974679;28;20070;-84
2022/05/05 03:55:09;;;;;;;7.03;2.70;;;;;;;5.43;51.79;100304.91;4976033;28;20047;-84
2022/05/05 03:57:37;;;;;;;9.63;2.72;;;;;;;5.31;51.82;100302.31;4943526;28;20058;-85
2022/05/05 04:00:04;;;;;;;7.57;3.17;;;;;;;5.38;52.39;100311.06;4976271;28;20046;-85
2022/05/05 04:02:38;;;;;;;28.23;4.43;;;;;;;5.32;52.09;100266.00;4962203;28;20046;-84
2022/05/05 04:05:04;;;;;;;9.65;2.92;;;;;;;5.47;51.21;100289.75;4974815;28;20398;-84
2022/05/05 04:07:30;;;;;;;11.38;3.13;;;;;;;5.59;51.58;100308.59;4960819;28;20424;-84
2022/05/05 04:09:56;;;;;;;11.07;3.40;;;;;;;5.52;50.33;100257.25;4975877;28;20045;-84
2022/05/05 04:12:22;;;;;;;11.00;3.00;;;;;;;5.96;50.51;100318.72;4959296;28;20141;-84
2022/05/05 04:14:48;;;;;;;5.13;2.83;;;;;;;5.96;49.93;100310.59;4973012;28;20054;-83
2022/05/05 04:17:14;;;;;;;8.70;2.80;;;;;;;5.73;50.20;100298.13;4974723;28;20500;-84
2022/05/05 04:19:40;;;;;;;4.82;2.67;;;;;;;5.73;50.07;100315.25;4941935;28;20084;-84
2022/05/05 04:22:15;;;;;;;5.95;2.83;;;;;;;5.70;49.91;100315.75;4976083;28;20039;-84
2022/05/05 04:24:41;;;;;;;11.57;3.13;;;;;;;6.02;49.58;100334.81;4976960;28;20047;-83
2022/05/05 04:27:07;;;;;;;13.77;2.92;;;;;;;5.77;49.23;100305.53;4944761;28;20408;-83
2022/05/05 04:29:36;;;;;;;6.78;2.85;;;;;;;5.91;49.84;100329.53;4977701;28;20047;-84
2022/05/05 04:32:15;;;;;;;7.10;3.08;;;;;;;5.81;49.38;100306.63;4977731;28;20039;-86
2022/05/05 04:34:50;;;;;;;9.93;2.80;;;;;;;6.05;48.96;100333.47;4978853;28;20051;-85
2022/05/05 04:37:16;;;;;;;6.13;2.65;;;;;;;5.73;49.40;100304.41;4978380;28;20039;-86
2022/05/05 04:39:44;;;;;;;7.47;3.47;;;;;;;5.96;49.42;100330.44;4983447;28;20043;-85
2022/05/05 04:42:10;;;;;;;13.07;3.00;;;;;;;5.53;48.93;100286.03;4957950;28;20504;-84
2022/05/05 04:44:36;;;;;;;5.30;2.60;;;;;;;5.91;48.91;100352.06;4979205;28;20154;-85
2022/05/05 04:47:03;;;;;;;13.20;3.55;;;;;;;5.71;48.64;100327.44;4961213;28;20046;-85
2022/05/05 04:49:30;;;;;;;13.35;3.10;;;;;;;5.83;48.25;100334.34;4960240;28;20039;-84
2022/05/05 04:51:57;;;;;;;11.48;2.85;;;;;;;5.84;48.74;100333.25;4976932;28;20065;-86
2022/05/05 04:54:23;;;;;;;10.17;2.70;;;;;;;6.04;47.90;100348.13;4960867;28;20046;-84
2022/05/05 04:56:50;;;;;;;6.07;3.00;;;;;;;6.02;47.95;100359.22;4978497;28;20278;-82
2022/05/05 04:59:16;;;;;;;9.35;2.78;;;;;;;5.96;47.97;100335.00;4976568;28;20113;-85
2022/05/05 05:01:42;;;;;;;11.65;3.03;;;;;;;6.29;47.33;100363.81;4978227;28;20519;-81
2022/05/05 05:04:11;;;;;;;7.07;2.67;;;;;;;6.24;47.03;100356.44;4991019;28;20050;-84
2022/05/05 05:06:37;;;;;;;6.15;2.53;;;;;;;6.35;46.23;100354.63;4974381;28;20043;-85
2022/05/05 05:09:05;;;;;;;5.25;2.40;;;;;;;6.26;45.52;100345.34;4983618;28;20042;-90
2022/05/05 05:11:34;;;;;;;12.32;2.65;;;;;;;6.38;45.13;100358.72;4963791;28;20094;-83
2022/05/05 05:14:21;;;;;;;10.25;2.38;;;;;;;6.38;44.47;100372.31;4976274;28;20542;-84
2022/05/05 05:16:50;;;;;;;7.95;2.25;;;;;;;6.09;43.70;100323.72;4977153;28;20129;-83
2022/05/05 05:19:16;;;;;;;19.20;2.72;;;;;;;6.32;43.76;100361.44;4977963;28;20046;-85
2022/05/05 05:21:42;;;;;;;16.50;2.60;;;;;;;6.41;43.31;100326.44;4961524;28;20043;-84
2022/05/05 05:24:08;;;;;;;7.35;2.70;;;;;;;6.81;43.42;100352.25;4979208;28;20051;-85
2022/05/05 05:26:34;;;;;;;9.32;3.38;;;;;;;7.14;42.64;100380.97;4977631;28;20045;-83
2022/05/05 05:29:00;;;;;;;3.53;1.92;;;;;;;6.66;40.97;100331.25;4977281;28;20042;-83
2022/05/05 05:31:39;;;;;;;9.50;2.15;;;;;;;6.92;41.05;100342.25;4958876;28;20535;-84
2022/05/05 05:34:06;;;;;;;6.18;2.00;;;;;;;7.14;39.92;100361.13;4975662;28;20045;-84
2022/05/05 05:36:32;;;;;;;7.00;1.90;;;;;;;7.00;39.63;100347.19;4975267;28;20047;-87
2022/05/05 05:38:58;;;;;;;14.57;2.50;;;;;;;7.11;39.54;100389.66;4974766;28;20035;-83
2022/05/05 05:41:24;;;;;;;10.50;2.15;;;;;;;7.05;39.19;100352.66;4942305;28;20066;-83
2022/05/05 05:43:50;;;;;;;11.18;2.30;;;;;;;7.21;37.75;100391.63;4975293;28;20133;-83
2022/05/05 05:46:16;;;;;;;9.40;1.85;;;;;;;7.22;38.64;100385.13;4958308;28;20125;-82
2022/05/05 05:48:52;;;;;;;6.30;2.20;;;;;;;7.33;39.10;100356.88;4945272;28;20046;-85
2022/05/05 05:51:19;;;;;;;17.63;2.75;;;;;;;7.48;36.76;100386.03;4975094;28;20051;-86
2022/05/05 05:53:45;;;;;;;16.40;2.80;;;;;;;7.45;37.00;100397.44;4958573;28;20038;-84
2022/05/05 05:56:18;;;;;;;10.50;2.15;;;;;;;7.09;36.18;100372.81;4958550;28;20086;-82
2022/05/05 05:58:45;;;;;;;16.08;2.67;;;;;;;7.43;36.59;100394.19;4976108;28;20039;-84
2022/05/05 06:01:14;;;;;;;11.23;2.00;;;;;;;7.44;35.34;100398.53;4975179;28;20125;-84
2022/05/05 06:03:56;;;;;;;25.55;3.20;;;;;;;7.52;36.16;100406.19;4926526;28;20046;-85
2022/05/05 06:06:23;;;;;;;15.38;2.72;;;;;;;7.08;35.95;100349.41;4963222;28;20053;-83
2022/05/05 06:08:50;;;;;;;7.05;2.75;;;;;;;7.65;35.17;100408.44;4977324;28;20137;-83
2022/05/05 06:11:18;;;;;;;34.60;2.90;;;;;;;7.46;34.42;100396.38;4943811;28;20171;-85
2022/05/05 06:13:48;;;;;;;8.15;2.17;;;;;;;7.71;33.80;100418.22;4976212;28;20043;-84
2022/05/05 06:16:14;;;;;;;6.65;1.85;;;;;;;7.61;33.44;100401.84;4957946;28;20098;-85
2022/05/05 06:18:40;;;;;;;28.02;2.45;;;;;;;7.56;33.33;100409.22;4975180;28;20040;-85
2022/05/05 06:21:07;;;;;;;8.60;1.88;;;;;;;7.25;33.11;100382.69;4960329;28;20464;-86
2022/05/05 06:23:33;;;;;;;8.23;2.22;;;;;;;7.10;32.93;100395.38;4961358;28;20536;-85
2022/05/05 06:26:02;;;;;;;22.80;3.33;;;;;;;6.89;32.89;100364.50;4975947;28;20070;-84
2022/05/05 06:28:28;;;;;;;11.15;2.67;;;;;;;7.18;33.25;100420.16;4975052;28;20038;-85
2022/05/05 06:30:54;;;;;;;33.80;2.63;;;;;;;7.01;33.59;100384.16;4958533;28;20183;-85
2022/05/05 06:33:20;;;;;;;29.10;3.15;;;;;;;7.41;33.09;100435.25;4975172;28;20548;-85
2022/05/05 06:35:49;;;;;;;7.25;2.15;;;;;;;7.47;32.30;100414.31;4958471;28;20042;-86
2022/05/05 06:38:15;;;;;;;8.75;2.05;;;;;;;7.59;31.46;100428.53;4957687;28;20038;-85
2022/05/05 06:40:44;;;;;;;10.70;2.47;;;;;;;7.66;32.06;100401.06;4957678;28;20085;-86
2022/05/05 06:43:12;;;;;;;12.35;2.30;;;;;;;7.73;31.20;100416.06;4973979;28;20049;-86
2022/05/05 06:45:38;;;;;;;60.70;3.47;;;;;;;7.67;30.86;100425.28;4974405;28;20043;-87
2022/05/05 06:49:05;;;;;;;8.38;1.90;;;;;;;7.53;30.27;100388.78;4922577;29;20108;-89
2022/05/05 06:51:31;;;;;;;7.97;2.10;;;;;;;7.70;30.70;100423.94;4898222;29;20048;-84
2022/05/05 06:54:19;;;;;;;19.83;2.83;;;;;;;7.89;29.13;100432.47;4897453;29;20055;-85
2022/05/05 06:56:56;;;;;;;16.63;2.97;;;;;;;8.03;28.74;100413.69;4822276;29;20076;-85
2022/05/05 07:00:17;;;;;;;5.45;1.80;;;;;;;8.11;28.98;100435.78;4823589;29;20055;-86
2022/05/05 07:02:47;;;;;;;9.88;1.88;;;;;;;7.74;29.84;100406.00;4822706;29;20116;-86
2022/05/05 07:05:26;;;;;;;3.60;1.58;;;;;;;7.74;29.97;100427.75;4822478;29;20061;-85
2022/05/05 07:07:53;;;;;;;3.63;1.75;;;;;;;7.91;30.60;100454.78;4821830;29;20060;-83
2022/05/05 07:13:05;;;;;;;10.00;1.80;;;;;;;8.05;28.67;100446.94;4824266;29;20536;-85
2022/05/05 07:15:32;;;;;;;9.93;1.70;;;;;;;8.03;28.70;100447.19;4825479;29;20051;-83
2022/05/05 07:17:59;;;;;;;13.38;1.60;;;;;;;7.87;29.13;100443.59;4821545;29;20446;-85
2022/05/05 07:20:25;;;;;;;7.00;1.52;;;;;;;7.85;30.32;100439.53;4823298;29;20065;-86
2022/05/05 07:22:52;;;;;;;2.60;1.10;;;;;;;7.86;29.13;100452.06;4823271;29;20054;-86
2022/05/05 07:25:20;;;;;;;5.80;1.50;;;;;;;7.94;29.44;100449.59;4823440;29;20141;-84
2022/05/05 07:27:51;;;;;;;6.82;1.30;;;;;;;7.91;28.52;100450.16;4854016;29;20056;-87
2022/05/05 07:30:17;;;;;;;11.43;1.40;;;;;;;7.99;28.35;100440.66;4897523;29;20419;-86
2022/05/05 07:32:43;;;;;;;16.95;2.15;;;;;;;8.11;28.54;100441.25;4899409;28;20469;-85
2022/05/05 07:35:11;;;;;;;5.40;1.70;;;;;;;8.19;27.81;100454.31;4975151;28;20042;-87
2022/05/05 07:37:39;;;;;;;15.73;1.73;;;;;;;8.21;27.70;100446.72;4975597;28;20101;-85
2022/05/05 07:40:09;;;;;;;8.73;1.60;;;;;;;8.42;28.08;100442.13;4973399;28;20047;-85
2022/05/05 07:42:42;;;;;;;9.20;2.17;;;;;;;8.60;27.17;100438.03;4974361;28;20137;-84
2022/05/05 07:45:09;;;;;;;13.80;3.67;;;;;;;8.60;28.25;100437.22;4973554;28;20046;-86
2022/05/05 07:47:35;;;;;;;26.60;8.50;;;;;;;8.63;26.68;100445.69;4974884;28;20286;-83
2022/05/05 07:50:02;;;;;;;16.50;3.45;;;;;;;8.40;26.62;100441.56;4975510;28;20397;-87
2022/05/05 07:52:28;;;;;;;12.20;2.28;;;;;;;8.35;26.74;100457.09;4974361;28;20046;-85
2022/05/05 07:54:55;;;;;;;14.75;2.50;;;;;;;8.16;26.97;100459.50;4976604;28;20043;-91
2022/05/05 07:57:22;;;;;;;31.63;6.25;;;;;;;8.10;26.89;100452.38;4975839;28;20401;-83
2022/05/05 07:59:52;;;;;;;7.78;2.05;;;;;;;8.09;27.04;100448.03;4974291;28;20047;-81
2022/05/05 08:02:25;;;;;;;19.17;3.15;;;;;;;8.16;27.15;100448.59;4972979;28;20129;-85
2022/05/05 08:04:57;;;;;;;30.95;5.97;;;;;;;8.32;27.08;100463.06;4973254;28;20066;-87
2022/05/05 08:07:32;;;;;;;19.77;4.85;;;;;;;8.57;26.13;100457.66;4972817;28;20536;-77
2022/05/05 08:10:13;;;;;;;34.25;4.43;;;;;;;8.61;26.59;100428.78;4971913;28;20061;-77
2022/05/05 08:12:48;;;;;;;32.38;2.80;;;;;;;8.82;26.98;100439.69;4975101;28;20043;-88
2022/05/05 08:15:28;;;;;;;9.32;2.10;;;;;;;8.90;25.88;100450.03;4975803;28;20097;-87
2022/05/05 08:17:59;;;;;;;4.82;2.25;;;;;;;9.04;25.84;100442.94;4974558;28;20488;-85
2022/05/05 08:20:42;;;;;;;109.25;7.10;;;;;;;9.15;24.93;100449.19;4973786;28;20132;-88
2022/05/05 08:23:16;;;;;;;50.88;9.25;;;;;;;9.05;25.57;100439.13;4976594;28;20046;-88
2022/05/05 08:28:45;;;;;;;10.27;1.73;;;;;;;8.68;25.90;100442.16;4971277;28;20086;-77
2022/05/05 08:31:19;;;;;;;6.45;2.03;;;;;;;8.97;25.95;100450.56;4970086;28;20129;-82
2022/05/05 08:34:16;;;;;;;20.50;2.92;;;;;;;9.38;25.69;100454.06;4973533;28;20130;-84
2022/05/05 08:37:20;;;;;;;15.10;2.55;;;;;;;9.38;24.98;100458.69;4972908;28;20416;-80
2022/05/05 08:39:52;;;;;;;11.57;2.33;;;;;;;9.64;24.77;100453.97;4943130;28;20059;-79
2022/05/05 08:42:29;;;;;;;58.10;13.18;;;;;;;9.59;25.44;100452.06;4969906;28;20039;-84
2022/05/05 08:45:09;;;;;;;7.43;1.90;;;;;;;9.58;23.41;100441.44;4969156;28;20051;-82
2022/05/05 08:47:57;;;;;;;13.55;2.67;;;;;;;9.61;24.69;100460.81;4952443;28;20039;-83
2022/05/05 08:50:32;;;;;;;15.85;3.22;;;;;;;9.52;24.48;100437.91;4967236;28;20539;-77
2022/05/05 08:53:06;;;;;;;16.40;2.60;;;;;;;9.31;25.19;100447.25;4968627;28;20043;-82
2022/05/05 08:55:39;;;;;;;60.63;12.57;;;;;;;9.45;25.59;100439.31;4967655;28;20045;-84
2022/05/05 08:58:18;;;;;;;20.63;2.47;;;;;;;9.56;24.41;100443.63;4970117;28;20053;-83
2022/05/05 09:01:00;;;;;;;20.25;3.15;;;;;;;9.50;24.72;100437.34;4967170;28;20603;-79
2022/05/05 09:03:30;;;;;;;10.57;2.50;;;;;;;9.29;24.83;100454.91;4970795;28;20050;-79
2022/05/05 09:06:08;;;;;;;19.35;3.00;;;;;;;9.27;25.29;100444.28;4971094;28;20127;-81
2022/05/05 09:08:43;;;;;;;5.75;2.15;;;;;;;9.41;25.03;100452.69;4972592;28;20062;-84
2022/05/05 09:11:18;;;;;;;12.27;2.40;;;;;;;9.26;24.84;100439.06;4971428;28;20046;-83
2022/05/05 09:13:53;;;;;;;20.90;2.90;;;;;;;9.37;25.22;100455.16;4955152;28;20145;-82
2022/05/05 09:16:26;;;;;;;28.08;4.90;;;;;;;9.57;25.19;100443.34;4953776;28;20126;-83
2022/05/05 09:19:04;;;;;;;25.80;4.68;;;;;;;9.79;23.80;100453.09;4971515;28;20074;-82
2022/05/05 09:21:34;;;;;;;14.23;2.20;;;;;;;9.67;24.01;100447.97;4971538;28;20050;-86
2022/05/05 09:27:41;;;;;;;24.77;11.00;;;;;;;9.79;23.55;100453.09;4971853;28;20075;-82
2022/05/05 09:30:12;;;;;;;12.10;2.78;;;;;;;9.99;23.76;100458.44;4968751;28;20073;-82
2022/05/05 09:32:51;;;;;;;30.67;9.45;;;;;;;9.82;24.48;100436.97;4969692;28;20062;-79
2022/05/05 09:35:41;;;;;;;10.65;3.00;;;;;;;10.05;24.14;100460.06;4967612;28;20046;-83
2022/05/05 09:38:27;;;;;;;27.17;2.90;;;;;;;10.14;24.14;100454.03;4969108;28;20094;-83
2022/05/05 09:41:07;;;;;;;34.17;6.55;;;;;;;10.34;24.18;100448.47;4967015;28;20073;-83
2022/05/05 09:43:38;;;;;;;27.35;2.78;;;;;;;10.40;24.20;100452.78;4967530;28;20038;-81
2022/05/05 09:46:43;;;;;;;27.23;6.10;;;;;;;10.42;24.50;100450.56;4965595;28;20049;-83
2022/05/05 09:49:19;;;;;;;19.98;4.80;;;;;;;10.38;23.63;100463.19;4906928;29;20138;-77
2022/05/05 09:57:46;;;;;;;17.25;2.75;;;;;;;9.98;23.49;100456.03;4967214;28;20050;-77
2022/05/05 10:06:34;;;;;;;5.35;2.20;;;;;;;10.13;23.74;100445.00;4966265;28;20039;-77
2022/05/05 10:09:13;;;;;;;6.78;2.00;;;;;;;9.76;23.68;100459.09;4967758;28;20093;-80
2022/05/05 10:11:42;;;;;;;14.15;3.33;;;;;;;10.01;23.91;100447.25;4969320;28;20039;-83
2022/05/05 10:14:13;;;;;;;10.02;2.65;;;;;;;10.18;23.75;100450.44;4967183;28;20046;-88
2022/05/05 10:16:44;;;;;;;13.35;2.78;;;;;;;10.25;24.01;100450.13;4968405;28;20485;-88
2022/05/05 10:19:15;;;;;;;15.60;2.60;;;;;;;10.46;23.58;100453.56;4964903;28;20043;-85
2022/05/05 10:21:58;;;;;;;33.90;4.82;;;;;;;10.72;24.34;100454.19;4968030;28;20043;-84
2022/05/05 10:24:38;;;;;;;20.52;3.20;;;;;;;10.74;23.49;100455.53;4967753;28;20551;-85
2022/05/05 10:27:07;;;;;;;10.05;2.20;;;;;;;10.73;22.49;100455.84;4967245;28;20042;-90
2022/05/05 10:29:53;;;;;;;11.82;3.08;;;;;;;10.75;23.41;100454.44;4967111;28;20070;-87
2022/05/05 10:32:26;;;;;;;6.85;2.10;;;;;;;10.77;22.88;100454.16;4968765;28;20039;-87
2022/05/05 10:35:09;;;;;;;6.78;2.38;;;;;;;11.01;23.58;100449.56;4968246;28;20070;-87
2022/05/05 10:37:38;;;;;;;12.25;2.05;;;;;;;10.70;22.87;100459.16;4972324;28;20047;-86
2022/05/05 10:40:13;;;;;;;37.15;9.15;;;;;;;10.75;22.80;100448.97;4964778;28;20047;-87
2022/05/05 10:42:54;;;;;;;15.32;1.90;;;;;;;10.73;22.31;100461.31;4965935;28;20054;-86
2022/05/05 10:45:40;;;;;;;8.45;2.38;;;;;;;10.62;23.08;100435.13;4950954;28;20634;-86
2022/05/05 10:48:09;;;;;;;7.60;2.30;;;;;;;10.97;23.66;100458.63;4966907;28;20047;-86
2022/05/05 10:50:56;;;;;;;13.82;2.92;;;;;;;11.17;22.82;100447.50;4964810;28;20039;-82
2022/05/05 10:53:46;;;;;;;6.43;2.45;;;;;;;11.07;23.04;100447.59;4964137;28;20373;-84
2022/05/05 10:56:33;;;;;;;7.75;3.00;;;;;;;11.07;22.81;100447.59;4944960;28;20653;-83
2022/05/05 10:59:08;;;;;;;12.55;3.00;;;;;;;11.25;23.09;100435.91;4966989;28;20047;-83
2022/05/05 11:01:42;;;;;;;7.22;2.45;;;;;;;11.73;23.00;100440.56;4964387;28;20055;-83
2022/05/05 11:04:29;;;;;;;28.73;5.38;;;;;;;11.85;23.23;100442.91;4963468;28;20070;-87
2022/05/05 11:07:29;;;;;;;6.55;2.30;;;;;;;11.66;22.01;100437.38;4968950;28;20591;-82
2022/05/05 11:10:08;;;;;;;13.65;5.85;;;;;;;11.59;22.71;100434.16;4964613;28;20057;-84
2022/05/05 11:12:37;;;;;;;20.70;6.82;;;;;;;11.83;23.12;100439.63;4964661;28;20496;-85
2022/05/05 11:23:50;;;;;;;6.65;2.38;;;;;;;11.86;21.53;100439.91;4963500;28;20046;-83
2022/05/05 11:26:21;;;;;;;15.77;3.05;;;;;;;11.80;21.08;100434.75;4959779;28;20501;-85
2022/05/05 11:28:51;;;;;;;10.75;2.50;;;;;;;11.51;21.44;100414.53;4961330;28;20493;-82
2022/05/05 11:31:24;;;;;;;11.43;2.63;;;;;;;11.78;21.14;100426.78;4958814;28;20530;-84
2022/05/05 11:34:06;;;;;;;12.30;2.80;;;;;;;12.08;22.27;100419.31;4960230;28;20101;-80
2022/05/05 11:36:41;;;;;;;981.55;298.23;;;;;;;12.50;23.42;100429.38;4962014;28;20047;-85
2022/05/05 11:39:10;;;;;;;215.88;51.88;;;;;;;12.69;21.52;100413.69;4959460;28;20117;-81
2022/05/05 11:41:42;;;;;;;34.28;4.43;;;;;;;12.75;20.23;100428.16;4960809;28;20047;-78
2022/05/05 11:44:17;;;;;;;12.82;2.30;;;;;;;12.91;20.99;100428.69;4957362;28;20122;-79
2022/05/05 11:46:53;;;;;;;13.55;2.20;;;;;;;12.77;20.72;100442.38;4958620;28;20050;-77
2022/05/05 11:49:35;;;;;;;28.67;9.85;;;;;;;12.82;20.86;100431.31;4939694;28;20047;-78
2022/05/05 11:52:03;;;;;;;32.22;5.38;;;;;;;13.14;20.75;100432.41;4958203;28;20054;-78
2022/05/05 11:54:32;;;;;;;14.13;4.03;;;;;;;13.11;20.06;100422.00;4957587;28;20101;-82
2022/05/05 11:56:58;;;;;;;26.10;5.00;;;;;;;13.49;20.57;100433.69;4958919;28;20212;-79
2022/05/05 12:02:17;;;;;;;41.40;6.38;;;;;;;13.54;19.44;100427.28;4958108;28;20488;-83
2022/05/05 12:04:51;;;;;;;33.05;6.90;;;;;;;13.54;20.25;100430.00;4957188;28;20043;-82
2022/05/05 12:07:23;;;;;;;22.80;3.55;;;;;;;13.31;19.35;100418.09;4958354;28;20085;-84
2022/05/05 12:09:51;;;;;;;12.80;2.70;;;;;;;13.06;19.77;100422.94;4957631;28;20443;-81
2022/05/05 12:12:23;;;;;;;15.70;3.38;;;;;;;13.14;19.34;100433.25;4957327;28;20046;-77
2022/05/05 12:14:52;;;;;;;13.95;2.40;;;;;;;12.76;19.64;100427.03;4939828;28;20413;-82
2022/05/05 12:17:23;;;;;;;24.70;3.28;;;;;;;12.86;18.98;100423.31;4956753;28;20042;-81
2022/05/05 12:19:52;;;;;;;10.63;2.53;;;;;;;12.64;19.99;100424.75;4956209;28;20043;-80
2022/05/05 12:22:30;;;;;;;6.35;1.95;;;;;;;12.39;19.87;100428.72;4956940;28;20043;-83
2022/05/05 12:25:06;;;;;;;9.98;2.10;;;;;;;12.58;20.09;100419.66;4954383;28;20162;-79
2022/05/05 12:27:34;;;;;;;27.17;4.50;;;;;;;12.92;20.30;100411.13;4972089;28;20077;-83
2022/05/05 12:30:01;;;;;;;13.27;2.38;;;;;;;13.39;19.64;100426.47;4973061;28;20122;-85